Sea Cloud II — 9HUE6 — position and weather

sailwx.info

Track history (hours):
 
Tides and Currents Weather Stations Pressure Air Temp Water Temp Dewpoint Dewpoint Depression Visibility Wind Speed Wind Dir Waves Ship Positions

Sea Cloud II

Ship's website: http://www.seacloud.com/en/the-ships/sea-cloud-ii.html

Last reported at 2018-Sep-22 07:28 UTC. Time now 2018-Sep-22 08:00 UTC.
Position N 38°08' E 013°22'.

Length 117 m; draft 6 m.

Type: Passenger vessel. MMSI: 248953000.

Date/timePositionNaut miles runAvg speedWind from/ knotsBaromVisibWave heightAir tempDewpointWater temp
2018-Sep-22 07:28N 38°08' E 013°22'0 0.0
2018-Sep-22 07:01N 38°08' E 013°22'0 0.0
2018-Sep-22 06:58N 38°08' E 013°22'0 0.0
2018-Sep-22 06:28N 38°08' E 013°22'0 0.0
2018-Sep-22 06:01N 38°08' E 013°22'0 0.2
2018-Sep-22 05:58N 38°08' E 013°22'0 0.0
2018-Sep-22 05:28N 38°08' E 013°22'0 1.2
2018-Sep-22 05:03N 38°07' E 013°23'0 4.6
2018-Sep-22 05:01N 38°07' E 013°23'1 1.9
2018-Sep-22 04:30N 38°08' E 013°24'2 4.8
2018-Sep-22 04:03N 38°10' E 013°25'0 6.8
2018-Sep-22 04:00N 38°10' E 013°25'3 6.7
2018-Sep-22 03:31N 38°14' E 013°26'2 3.8
2018-Sep-22 03:03N 38°15' E 013°25'0 3.0
2018-Sep-22 03:00N 38°15' E 013°25'2 4.5
2018-Sep-22 02:31N 38°17' E 013°23'3 6.6
2018-Sep-22 02:03N 38°18' E 013°19'0 6.7
2018-Sep-22 02:00N 38°18' E 013°19'3 6.8
2018-Sep-22 01:31N 38°18' E 013°15'3 6.8
2018-Sep-22 01:04N 38°17' E 013°11'0 6.9
2018-Sep-22 01:00N 38°17' E 013°10'3 6.9
2018-Sep-22 00:31N 38°16' E 013°06'3 7.0
2018-Sep-22 00:03N 38°16' E 013°02'0 7.0
2018-Sep-22 00:00N 38°16' E 013°02'3 6.8
2018-Sep-21 23:30N 38°15' E 012°57'3 7.3
2018-Sep-21 23:04N 38°15' E 012°53'0 7.5
2018-Sep-21 23:00N 38°15' E 012°53'8 0.4
2018-Sep-21 01:35N 38°19' E 012°44'1 6.7
2018-Sep-21 01:27N 38°19' E 012°45'3 6.8
2018-Sep-21 01:02N 38°19' E 012°49'1 7.0
2018-Sep-21 00:53N 38°19' E 012°50'4 9.8
2018-Sep-21 00:30N 38°19' E 012°55'510.4
2018-Sep-21 00:03N 38°20' E 013°01'110.3
2018-Sep-21 00:00N 38°20' E 013°02'510.2
2018-Sep-20 23:30N 38°20' E 013°08'4 8.9
2018-Sep-20 23:03N 38°22' E 013°13'110.4
2018-Sep-20 23:00N 38°23' E 013°13'510.3
2018-Sep-20 22:30N 38°28' E 013°14'510.3
2018-Sep-20 22:02N 38°32' E 013°16'010.3
2018-Sep-20 22:00N 38°33' E 013°16'5 9.9
2018-Sep-20 21:30N 38°37' E 013°18'4 9.6
2018-Sep-20 21:02N 38°42' E 013°19'0 9.6
2018-Sep-20 21:00N 38°42' E 013°19'6 9.7
2018-Sep-20 20:23N 38°48' E 013°21'9 9.9
2018-Sep-20 19:27N 38°57' E 013°23'89 4.3
2018-Sep-19 22:42N 40°22' E 013°59'810.9
2018-Sep-19 21:57N 40°30' E 014°02'610.9
2018-Sep-19 21:26N 40°33' E 014°08'410.9
2018-Sep-19 21:03N 40°35' E 014°13'0 8.0
2018-Sep-19 21:00N 40°35' E 014°14'1 2.0
2018-Sep-19 20:28N 40°34' E 014°14'0 0.0
2018-Sep-19 20:01N 40°34' E 014°14'0 0.0
2018-Sep-19 19:58N 40°34' E 014°14'0 0.0
2018-Sep-19 19:28N 40°34' E 014°14'0 0.0
2018-Sep-19 19:01N 40°34' E 014°14'0 0.1
2018-Sep-19 18:55N 40°34' E 014°14'0 0.0
2018-Sep-19 18:28N 40°34' E 014°14'0 0.1
2018-Sep-19 18:01N 40°34' E 014°14'0 0.1
2018-Sep-19 17:58N 40°34' E 014°14'0 0.0
2018-Sep-19 17:16N 40°34' E 014°14'0 0.0
2018-Sep-19 16:49N 40°34' E 014°14'0 0.0
2018-Sep-19 16:19N 40°34' E 014°14'0 0.0
2018-Sep-19 16:01N 40°34' E 014°14'0 0.1
2018-Sep-19 15:52N 40°34' E 014°14'0 0.1
2018-Sep-19 15:25N 40°34' E 014°14'0 0.0
2018-Sep-19 15:01N 40°34' E 014°14'0 0.0
2018-Sep-19 14:55N 40°34' E 014°14'0 0.0
2018-Sep-19 14:01N 40°34' E 014°14'0 0.0
2018-Sep-19 13:28N 40°34' E 014°14'0 0.1
2018-Sep-19 13:01N 40°34' E 014°14'0 0.1
2018-Sep-19 12:58N 40°34' E 014°14'0 0.0
2018-Sep-19 12:28N 40°34' E 014°14'0 0.0
2018-Sep-19 12:01N 40°34' E 014°14'0 0.2
2018-Sep-19 11:58N 40°34' E 014°14'0 0.9
2018-Sep-19 11:30N 40°34' E 014°14'3 6.8
2018-Sep-19 11:04N 40°37' E 014°13'110.4
2018-Sep-19 11:00N 40°37' E 014°12'510.2
2018-Sep-19 10:30N 40°42' E 014°11'1 1.9
2018-Sep-19 10:03N 40°42' E 014°12'0 2.5
2018-Sep-19 10:01N 40°42' E 014°12'1 2.2
2018-Sep-19 09:30N 40°41' E 014°13'1 2.2
2018-Sep-19 09:03N 40°41' E 014°14'0 2.1
2018-Sep-19 09:01N 40°41' E 014°14'0 1.0
2018-Sep-19 08:30N 40°40' E 014°14'0 0.8
2018-Sep-19 08:04N 40°40' E 014°15'0 1.3
2018-Sep-19 08:00N 40°40' E 014°15'1 1.7
2018-Sep-19 07:31N 40°41' E 014°15'1 2.7
2018-Sep-19 07:03N 40°42' E 014°16'0 2.4
2018-Sep-19 07:01N 40°42' E 014°16'3 6.1
2018-Sep-19 06:30N 40°41' E 014°12'511.0
2018-Sep-19 06:03N 40°40' E 014°06'110.9
2018-Sep-19 06:00N 40°39' E 014°05'510.7
2018-Sep-19 05:30N 40°39' E 013°58'510.7
2018-Sep-19 05:03N 40°38' E 013°52'110.8
2018-Sep-19 05:00N 40°39' E 013°51'611.2
2018-Sep-19 04:31N 40°42' E 013°46'511.1
2018-Sep-19 04:01N 40°46' E 013°40'011.0
2018-Sep-19 04:00N 40°46' E 013°40'182 3.5
2018-Sep-17 00:12N 41°09' E 009°40'1 5.8
2018-Sep-17 00:03N 41°09' E 009°40'1 7.0
2018-Sep-16 23:57N 41°10' E 009°40'127 2.6
2018-Sep-14 23:00N 43°17' E 009°40'1111.2
2018-Sep-14 22:00N 43°28' E 009°43'511.0
2018-Sep-14 21:30N 43°34' E 009°44'511.0
2018-Sep-14 21:03N 43°38' E 009°45'111.1
2018-Sep-14 21:00N 43°39' E 009°46'611.3
2018-Sep-14 20:31N 43°44' E 009°47'511.4
2018-Sep-14 20:04N 43°49' E 009°49'111.4
2018-Sep-14 20:00N 43°50' E 009°49'611.6
2018-Sep-14 19:30N 43°55' E 009°51'511.8
2018-Sep-14 19:03N 44°01' E 009°52'111.6
2018-Sep-14 19:00N 44°01' E 009°52'2 4.4
2018-Sep-14 18:30N 44°03' E 009°51'0 0.1
2018-Sep-14 18:03N 44°03' E 009°51'0 0.1
2018-Sep-14 18:00N 44°03' E 009°51'0 0.0
2018-Sep-14 17:30N 44°03' E 009°51'0 0.0
2018-Sep-14 17:03N 44°03' E 009°51'0 0.1
2018-Sep-14 17:00N 44°03' E 009°51'0 0.0
2018-Sep-14 16:27N 44°03' E 009°51'0 0.0
2018-Sep-14 16:03N 44°03' E 009°51'0 0.0
2018-Sep-14 16:00N 44°03' E 009°51'0 0.0
2018-Sep-14 15:30N 44°03' E 009°51'0 0.0
2018-Sep-14 15:03N 44°03' E 009°51'0 0.1
2018-Sep-14 15:00N 44°03' E 009°51'0 0.0
2018-Sep-14 14:30N 44°03' E 009°51'0 0.0
2018-Sep-14 14:00N 44°03' E 009°51'0 0.0
2018-Sep-14 13:30N 44°03' E 009°51'0 0.0
2018-Sep-14 12:51N 44°03' E 009°51'0 0.0
2018-Sep-14 12:30N 44°03' E 009°51'0 0.0
2018-Sep-14 12:03N 44°03' E 009°51'0 0.0
2018-Sep-14 12:00N 44°03' E 009°51'0 0.0
2018-Sep-14 11:30N 44°03' E 009°51'0 0.1
2018-Sep-14 11:03N 44°03' E 009°51'0 0.0
2018-Sep-14 11:00N 44°03' E 009°51'0 0.0
2018-Sep-14 10:30N 44°03' E 009°51'0 0.0
2018-Sep-14 10:03N 44°03' E 009°51'0 0.0
2018-Sep-14 10:00N 44°03' E 009°51'0 0.0
2018-Sep-14 09:30N 44°03' E 009°51'0 0.0
2018-Sep-14 09:03N 44°03' E 009°51'0 0.1
2018-Sep-14 09:00N 44°03' E 009°51'0 0.1
2018-Sep-14 08:30N 44°03' E 009°51'0 0.0
2018-Sep-14 08:03N 44°03' E 009°51'0 0.0
2018-Sep-14 08:00N 44°03' E 009°51'0 0.0
2018-Sep-14 07:30N 44°03' E 009°51'0 0.0
2018-Sep-14 07:03N 44°03' E 009°51'0 0.0
2018-Sep-14 07:00N 44°03' E 009°51'0 0.0
2018-Sep-14 06:30N 44°03' E 009°51'0 0.0
2018-Sep-14 06:03N 44°03' E 009°51'0 0.0
2018-Sep-14 06:00N 44°03' E 009°51'0 0.1
2018-Sep-14 05:30N 44°03' E 009°51'3 5.8
2018-Sep-14 05:04N 44°02' E 009°54'0 6.6
2018-Sep-14 05:01N 44°01' E 009°54'3 6.5
2018-Sep-14 04:30N 43°59' E 009°51'3 5.8
2018-Sep-14 04:04N 43°57' E 009°48'0 5.8
2018-Sep-14 04:00N 43°57' E 009°48'3 6.9
2018-Sep-14 03:31N 43°55' E 009°44'3 5.8
2018-Sep-14 03:03N 43°54' E 009°41'0 5.8
2018-Sep-14 03:01N 43°53' E 009°41'3 6.0
2018-Sep-14 02:31N 43°52' E 009°37'3 6.7
2018-Sep-14 02:03N 43°51' E 009°33'0 6.8
2018-Sep-14 02:00N 43°51' E 009°33'3 6.8
2018-Sep-14 01:30N 43°50' E 009°28'3 6.8
2018-Sep-14 01:04N 43°49' E 009°24'0 6.7
2018-Sep-14 01:01N 43°48' E 009°24'3 6.7
2018-Sep-14 00:31N 43°47' E 009°20'3 6.6
2018-Sep-14 00:04N 43°47' E 009°15'0 6.7
2018-Sep-14 00:01N 43°47' E 009°15'3 6.7
2018-Sep-13 23:30N 43°47' E 009°10'3 6.8
2018-Sep-13 23:04N 43°46' E 009°06'0 6.8
2018-Sep-13 23:00N 43°46' E 009°06'4 8.4
2018-Sep-13 22:31N 43°46' E 008°60'510.6
2018-Sep-13 22:03N 43°46' E 008°53'110.7
2018-Sep-13 22:00N 43°46' E 008°52'510.6
2018-Sep-13 21:31N 43°46' E 008°45'510.6
2018-Sep-13 21:04N 43°46' E 008°39'110.5
2018-Sep-13 20:59N 43°46' E 008°38'510.5
2018-Sep-13 20:30N 43°46' E 008°30'510.5
2018-Sep-13 20:03N 43°45' E 008°24'110.6
2018-Sep-13 19:59N 43°45' E 008°23'510.4
2018-Sep-13 19:31N 43°45' E 008°16'510.5
2018-Sep-13 19:03N 43°45' E 008°09'110.7
2018-Sep-13 19:00N 43°45' E 008°09'510.4
2018-Sep-13 18:31N 43°45' E 008°02'510.3
2018-Sep-13 18:02N 43°45' E 007°55'110.4
2018-Sep-13 17:58N 43°45' E 007°54'510.5
2018-Sep-13 17:30N 43°44' E 007°47'510.7
2018-Sep-13 17:04N 43°44' E 007°41'110.7
2018-Sep-13 17:01N 43°44' E 007°40'510.6
2018-Sep-13 16:30N 43°44' E 007°33'4 9.9
2018-Sep-13 16:03N 43°44' E 007°26'0 5.2
2018-Sep-13 16:00N 43°44' E 007°26'0 0.3
2018-Sep-13 15:28N 43°44' E 007°26'0 0.0
2018-Sep-13 15:01N 43°44' E 007°26'0 0.1
2018-Sep-13 14:58N 43°44' E 007°26'0 0.0
2018-Sep-13 14:28N 43°44' E 007°26'0 0.0
2018-Sep-13 13:58N 43°44' E 007°26'0 0.0
2018-Sep-13 13:28N 43°44' E 007°26'0 0.0
2018-Sep-13 13:01N 43°44' E 007°26'0 0.0
2018-Sep-13 12:58N 43°44' E 007°26'0 0.0
2018-Sep-13 12:28N 43°44' E 007°26'0 0.0
2018-Sep-13 12:01N 43°44' E 007°26'0 0.1
2018-Sep-13 11:58N 43°44' E 007°26'0 0.0
2018-Sep-13 11:28N 43°44' E 007°26'0 0.0
2018-Sep-13 11:01N 43°44' E 007°26'0 0.1
2018-Sep-13 10:58N 43°44' E 007°26'0 0.0
2018-Sep-13 10:28N 43°44' E 007°26'0 0.0
2018-Sep-13 10:01N 43°44' E 007°26'0 0.1
2018-Sep-13 09:58N 43°44' E 007°26'0 0.0
2018-Sep-13 09:28N 43°44' E 007°26'0 0.0
2018-Sep-13 08:58N 43°44' E 007°26'0 0.0
2018-Sep-13 08:28N 43°44' E 007°26'0 0.0
2018-Sep-13 07:58N 43°44' E 007°26'0 0.0
2018-Sep-13 07:28N 43°44' E 007°26'0 0.0
2018-Sep-13 07:01N 43°44' E 007°26'0 0.2
2018-Sep-13 06:58N 43°44' E 007°26'0 0.0
2018-Sep-13 06:28N 43°44' E 007°26'0 0.0
2018-Sep-13 06:01N 43°44' E 007°26'0 0.0
2018-Sep-13 05:58N 43°44' E 007°26'0 0.0
2018-Sep-13 05:28N 43°44' E 007°26'0 0.0
2018-Sep-13 05:01N 43°44' E 007°26'0 0.1
2018-Sep-13 04:58N 43°44' E 007°26'0 0.3
2018-Sep-13 04:30N 43°44' E 007°26'2 3.8
2018-Sep-13 04:03N 43°42' E 007°26'0 6.9
2018-Sep-13 04:00N 43°42' E 007°25'3 5.4
2018-Sep-13 03:30N 43°40' E 007°23'2 5.1
2018-Sep-13 03:03N 43°39' E 007°20'0 3.8
2018-Sep-13 03:00N 43°39' E 007°20'2 3.6
2018-Sep-13 02:30N 43°37' E 007°18'2 3.4
2018-Sep-13 02:03N 43°36' E 007°17'0 3.4
2018-Sep-13 02:00N 43°36' E 007°17'2 3.4
2018-Sep-13 01:30N 43°35' E 007°16'2 3.4
2018-Sep-13 01:03N 43°33' E 007°14'0 3.6
2018-Sep-13 01:00N 43°33' E 007°14'2 3.7
2018-Sep-13 00:30N 43°32' E 007°12'2 3.7
2018-Sep-13 00:03N 43°31' E 007°11'0 3.7
2018-Sep-13 00:00N 43°30' E 007°11'2 3.7
2018-Sep-12 23:30N 43°29' E 007°09'2 3.5
2018-Sep-12 23:03N 43°28' E 007°08'0 3.3
2018-Sep-12 23:00N 43°27' E 007°08'1 3.0
2018-Sep-12 22:30N 43°26' E 007°07'1 2.7
2018-Sep-12 22:03N 43°25' E 007°07'0 2.8
2018-Sep-12 22:00N 43°25' E 007°07'1 3.0
2018-Sep-12 21:30N 43°23' E 007°07'1 3.0
2018-Sep-12 21:03N 43°22' E 007°07'0 2.9
2018-Sep-12 21:00N 43°22' E 007°07'1 2.8
2018-Sep-12 20:30N 43°21' E 007°08'1 2.9
2018-Sep-12 20:03N 43°19' E 007°08'0 3.1
2018-Sep-12 20:00N 43°19' E 007°08'1 2.7
2018-Sep-12 19:30N 43°18' E 007°08'1 1.3
2018-Sep-12 19:03N 43°18' E 007°07'0 1.5
2018-Sep-12 19:00N 43°18' E 007°07'1 1.9
2018-Sep-12 18:30N 43°17' E 007°06'1 1.9
2018-Sep-12 18:03N 43°16' E 007°05'0 1.9
2018-Sep-12 18:00N 43°16' E 007°05'1 2.1
2018-Sep-12 17:30N 43°15' E 007°04'1 2.0
2018-Sep-12 17:03N 43°14' E 007°04'0 2.1
2018-Sep-12 17:00N 43°14' E 007°04'1 2.1
2018-Sep-12 16:30N 43°13' E 007°03'1 2.6
2018-Sep-12 16:03N 43°14' E 007°02'0 2.1
2018-Sep-12 16:00N 43°15' E 007°02'2 3.5
2018-Sep-12 15:30N 43°15' E 007°00'2 4.9
2018-Sep-12 15:03N 43°16' E 006°57'0 5.7
2018-Sep-12 15:00N 43°16' E 006°57'5 5.7
2018-Sep-12 14:03N 43°17' E 006°50'0 5.3
2018-Sep-12 14:00N 43°17' E 006°49'2 4.6
2018-Sep-12 13:30N 43°17' E 006°46'2 4.6
2018-Sep-12 13:00N 43°17' E 006°43'4 2.9
2018-Sep-12 11:37N 43°17' E 006°38'0 0.0
2018-Sep-12 10:19N 43°17' E 006°38'0 0.0
2018-Sep-12 09:52N 43°17' E 006°38'  
Track history (hours):
 
Tides and Currents Weather Stations Pressure Air Temp Water Temp Dewpoint Dewpoint Depression Visibility Wind Speed Wind Dir Waves Ship Positions

Sea Cloud II

Ship's website: http://www.seacloud.com/en/the-ships/sea-cloud-ii.html

Last reported at 2018-Sep-22 07:28 UTC. Time now 2018-Sep-22 08:00 UTC.
Position N 38°08' E 013°22'.

Length 117 m; draft 6 m.

Type: Passenger vessel. MMSI: 248953000.

Date/timePositionNaut miles runAvg speedWind from/ knotsBaromVisibWave heightAir tempDewpointWater temp
2018-Sep-22 07:28N 38°08' E 013°22'0 0.0
2018-Sep-22 07:01N 38°08' E 013°22'0 0.0
2018-Sep-22 06:58N 38°08' E 013°22'0 0.0
2018-Sep-22 06:28N 38°08' E 013°22'0 0.0
2018-Sep-22 06:01N 38°08' E 013°22'0 0.2
2018-Sep-22 05:58N 38°08' E 013°22'0 0.0
2018-Sep-22 05:28N 38°08' E 013°22'0 1.2
2018-Sep-22 05:03N 38°07' E 013°23'0 4.6
2018-Sep-22 05:01N 38°07' E 013°23'1 1.9
2018-Sep-22 04:30N 38°08' E 013°24'2 4.8
2018-Sep-22 04:03N 38°10' E 013°25'0 6.8
2018-Sep-22 04:00N 38°10' E 013°25'3 6.7
2018-Sep-22 03:31N 38°14' E 013°26'2 3.8
2018-Sep-22 03:03N 38°15' E 013°25'0 3.0
2018-Sep-22 03:00N 38°15' E 013°25'2 4.5
2018-Sep-22 02:31N 38°17' E 013°23'3 6.6
2018-Sep-22 02:03N 38°18' E 013°19'0 6.7
2018-Sep-22 02:00N 38°18' E 013°19'3 6.8
2018-Sep-22 01:31N 38°18' E 013°15'3 6.8
2018-Sep-22 01:04N 38°17' E 013°11'0 6.9
2018-Sep-22 01:00N 38°17' E 013°10'3 6.9
2018-Sep-22 00:31N 38°16' E 013°06'3 7.0
2018-Sep-22 00:03N 38°16' E 013°02'0 7.0
2018-Sep-22 00:00N 38°16' E 013°02'3 6.8
2018-Sep-21 23:30N 38°15' E 012°57'3 7.3
2018-Sep-21 23:04N 38°15' E 012°53'0 7.5
2018-Sep-21 23:00N 38°15' E 012°53'8 0.4
2018-Sep-21 01:35N 38°19' E 012°44'1 6.7
2018-Sep-21 01:27N 38°19' E 012°45'3 6.8
2018-Sep-21 01:02N 38°19' E 012°49'1 7.0
2018-Sep-21 00:53N 38°19' E 012°50'4 9.8
2018-Sep-21 00:30N 38°19' E 012°55'510.4
2018-Sep-21 00:03N 38°20' E 013°01'110.3
2018-Sep-21 00:00N 38°20' E 013°02'510.2
2018-Sep-20 23:30N 38°20' E 013°08'4 8.9
2018-Sep-20 23:03N 38°22' E 013°13'110.4
2018-Sep-20 23:00N 38°23' E 013°13'510.3
2018-Sep-20 22:30N 38°28' E 013°14'510.3
2018-Sep-20 22:02N 38°32' E 013°16'010.3
2018-Sep-20 22:00N 38°33' E 013°16'5 9.9
2018-Sep-20 21:30N 38°37' E 013°18'4 9.6
2018-Sep-20 21:02N 38°42' E 013°19'0 9.6
2018-Sep-20 21:00N 38°42' E 013°19'6 9.7
2018-Sep-20 20:23N 38°48' E 013°21'9 9.9
2018-Sep-20 19:27N 38°57' E 013°23'89 4.3
2018-Sep-19 22:42N 40°22' E 013°59'810.9
2018-Sep-19 21:57N 40°30' E 014°02'610.9
2018-Sep-19 21:26N 40°33' E 014°08'410.9
2018-Sep-19 21:03N 40°35' E 014°13'0 8.0
2018-Sep-19 21:00N 40°35' E 014°14'1 2.0
2018-Sep-19 20:28N 40°34' E 014°14'0 0.0
2018-Sep-19 20:01N 40°34' E 014°14'0 0.0
2018-Sep-19 19:58N 40°34' E 014°14'0 0.0
2018-Sep-19 19:28N 40°34' E 014°14'0 0.0
2018-Sep-19 19:01N 40°34' E 014°14'0 0.1
2018-Sep-19 18:55N 40°34' E 014°14'0 0.0
2018-Sep-19 18:28N 40°34' E 014°14'0 0.1
2018-Sep-19 18:01N 40°34' E 014°14'0 0.1
2018-Sep-19 17:58N 40°34' E 014°14'0 0.0
2018-Sep-19 17:16N 40°34' E 014°14'0 0.0
2018-Sep-19 16:49N 40°34' E 014°14'0 0.0
2018-Sep-19 16:19N 40°34' E 014°14'0 0.0
2018-Sep-19 16:01N 40°34' E 014°14'0 0.1
2018-Sep-19 15:52N 40°34' E 014°14'0 0.1
2018-Sep-19 15:25N 40°34' E 014°14'0 0.0
2018-Sep-19 15:01N 40°34' E 014°14'0 0.0
2018-Sep-19 14:55N 40°34' E 014°14'0 0.0
2018-Sep-19 14:01N 40°34' E 014°14'0 0.0
2018-Sep-19 13:28N 40°34' E 014°14'0 0.1
2018-Sep-19 13:01N 40°34' E 014°14'0 0.1
2018-Sep-19 12:58N 40°34' E 014°14'0 0.0
2018-Sep-19 12:28N 40°34' E 014°14'0 0.0
2018-Sep-19 12:01N 40°34' E 014°14'0 0.2
2018-Sep-19 11:58N 40°34' E 014°14'0 0.9
2018-Sep-19 11:30N 40°34' E 014°14'3 6.8
2018-Sep-19 11:04N 40°37' E 014°13'110.4
2018-Sep-19 11:00N 40°37' E 014°12'510.2
2018-Sep-19 10:30N 40°42' E 014°11'1 1.9
2018-Sep-19 10:03N 40°42' E 014°12'0 2.5
2018-Sep-19 10:01N 40°42' E 014°12'1 2.2
2018-Sep-19 09:30N 40°41' E 014°13'1 2.2
2018-Sep-19 09:03N 40°41' E 014°14'0 2.1
2018-Sep-19 09:01N 40°41' E 014°14'0 1.0
2018-Sep-19 08:30N 40°40' E 014°14'0 0.8
2018-Sep-19 08:04N 40°40' E 014°15'0 1.3
2018-Sep-19 08:00N 40°40' E 014°15'1 1.7
2018-Sep-19 07:31N 40°41' E 014°15'1 2.7
2018-Sep-19 07:03N 40°42' E 014°16'0 2.4
2018-Sep-19 07:01N 40°42' E 014°16'3 6.1
2018-Sep-19 06:30N 40°41' E 014°12'511.0
2018-Sep-19 06:03N 40°40' E 014°06'110.9
2018-Sep-19 06:00N 40°39' E 014°05'510.7
2018-Sep-19 05:30N 40°39' E 013°58'510.7
2018-Sep-19 05:03N 40°38' E 013°52'110.8
2018-Sep-19 05:00N 40°39' E 013°51'611.2
2018-Sep-19 04:31N 40°42' E 013°46'511.1
2018-Sep-19 04:01N 40°46' E 013°40'011.0
2018-Sep-19 04:00N 40°46' E 013°40'182 3.5
2018-Sep-17 00:12N 41°09' E 009°40'1 5.8
2018-Sep-17 00:03N 41°09' E 009°40'1 7.0
2018-Sep-16 23:57N 41°10' E 009°40'127 2.6
2018-Sep-14 23:00N 43°17' E 009°40'1111.2
2018-Sep-14 22:00N 43°28' E 009°43'511.0
2018-Sep-14 21:30N 43°34' E 009°44'511.0
2018-Sep-14 21:03N 43°38' E 009°45'111.1
2018-Sep-14 21:00N 43°39' E 009°46'611.3
2018-Sep-14 20:31N 43°44' E 009°47'511.4
2018-Sep-14 20:04N 43°49' E 009°49'111.4
2018-Sep-14 20:00N 43°50' E 009°49'611.6
2018-Sep-14 19:30N 43°55' E 009°51'511.8
2018-Sep-14 19:03N 44°01' E 009°52'111.6
2018-Sep-14 19:00N 44°01' E 009°52'2 4.4
2018-Sep-14 18:30N 44°03' E 009°51'0 0.1
2018-Sep-14 18:03N 44°03' E 009°51'0 0.1
2018-Sep-14 18:00N 44°03' E 009°51'0 0.0
2018-Sep-14 17:30N 44°03' E 009°51'0 0.0
2018-Sep-14 17:03N 44°03' E 009°51'0 0.1
2018-Sep-14 17:00N 44°03' E 009°51'0 0.0
2018-Sep-14 16:27N 44°03' E 009°51'0 0.0
2018-Sep-14 16:03N 44°03' E 009°51'0 0.0
2018-Sep-14 16:00N 44°03' E 009°51'0 0.0
2018-Sep-14 15:30N 44°03' E 009°51'0 0.0
2018-Sep-14 15:03N 44°03' E 009°51'0 0.1
2018-Sep-14 15:00N 44°03' E 009°51'0 0.0
2018-Sep-14 14:30N 44°03' E 009°51'0 0.0
2018-Sep-14 14:00N 44°03' E 009°51'0 0.0
2018-Sep-14 13:30N 44°03' E 009°51'0 0.0
2018-Sep-14 12:51N 44°03' E 009°51'0 0.0
2018-Sep-14 12:30N 44°03' E 009°51'0 0.0
2018-Sep-14 12:03N 44°03' E 009°51'0 0.0
2018-Sep-14 12:00N 44°03' E 009°51'0 0.0
2018-Sep-14 11:30N 44°03' E 009°51'0 0.1
2018-Sep-14 11:03N 44°03' E 009°51'0 0.0
2018-Sep-14 11:00N 44°03' E 009°51'0 0.0
2018-Sep-14 10:30N 44°03' E 009°51'0 0.0
2018-Sep-14 10:03N 44°03' E 009°51'0 0.0
2018-Sep-14 10:00N 44°03' E 009°51'0 0.0
2018-Sep-14 09:30N 44°03' E 009°51'0 0.0
2018-Sep-14 09:03N 44°03' E 009°51'0 0.1
2018-Sep-14 09:00N 44°03' E 009°51'0 0.1
2018-Sep-14 08:30N 44°03' E 009°51'0 0.0
2018-Sep-14 08:03N 44°03' E 009°51'0 0.0
2018-Sep-14 08:00N 44°03' E 009°51'0 0.0
2018-Sep-14 07:30N 44°03' E 009°51'0 0.0
2018-Sep-14 07:03N 44°03' E 009°51'0 0.0
2018-Sep-14 07:00N 44°03' E 009°51'0 0.0
2018-Sep-14 06:30N 44°03' E 009°51'0 0.0
2018-Sep-14 06:03N 44°03' E 009°51'0 0.0
2018-Sep-14 06:00N 44°03' E 009°51'0 0.1
2018-Sep-14 05:30N 44°03' E 009°51'3 5.8
2018-Sep-14 05:04N 44°02' E 009°54'0 6.6
2018-Sep-14 05:01N 44°01' E 009°54'3 6.5
2018-Sep-14 04:30N 43°59' E 009°51'3 5.8
2018-Sep-14 04:04N 43°57' E 009°48'0 5.8
2018-Sep-14 04:00N 43°57' E 009°48'3 6.9
2018-Sep-14 03:31N 43°55' E 009°44'3 5.8
2018-Sep-14 03:03N 43°54' E 009°41'0 5.8
2018-Sep-14 03:01N 43°53' E 009°41'3 6.0
2018-Sep-14 02:31N 43°52' E 009°37'3 6.7
2018-Sep-14 02:03N 43°51' E 009°33'0 6.8
2018-Sep-14 02:00N 43°51' E 009°33'3 6.8
2018-Sep-14 01:30N 43°50' E 009°28'3 6.8
2018-Sep-14 01:04N 43°49' E 009°24'0 6.7
2018-Sep-14 01:01N 43°48' E 009°24'3 6.7
2018-Sep-14 00:31N 43°47' E 009°20'3 6.6
2018-Sep-14 00:04N 43°47' E 009°15'0 6.7
2018-Sep-14 00:01N 43°47' E 009°15'3 6.7
2018-Sep-13 23:30N 43°47' E 009°10'3 6.8
2018-Sep-13 23:04N 43°46' E 009°06'0 6.8
2018-Sep-13 23:00N 43°46' E 009°06'4 8.4
2018-Sep-13 22:31N 43°46' E 008°60'510.6
2018-Sep-13 22:03N 43°46' E 008°53'110.7
2018-Sep-13 22:00N 43°46' E 008°52'510.6
2018-Sep-13 21:31N 43°46' E 008°45'510.6
2018-Sep-13 21:04N 43°46' E 008°39'110.5
2018-Sep-13 20:59N 43°46' E 008°38'510.5
2018-Sep-13 20:30N 43°46' E 008°30'510.5
2018-Sep-13 20:03N 43°45' E 008°24'110.6
2018-Sep-13 19:59N 43°45' E 008°23'510.4
2018-Sep-13 19:31N 43°45' E 008°16'510.5
2018-Sep-13 19:03N 43°45' E 008°09'110.7
2018-Sep-13 19:00N 43°45' E 008°09'510.4
2018-Sep-13 18:31N 43°45' E 008°02'510.3
2018-Sep-13 18:02N 43°45' E 007°55'110.4
2018-Sep-13 17:58N 43°45' E 007°54'510.5
2018-Sep-13 17:30N 43°44' E 007°47'510.7
2018-Sep-13 17:04N 43°44' E 007°41'110.7
2018-Sep-13 17:01N 43°44' E 007°40'510.6
2018-Sep-13 16:30N 43°44' E 007°33'4 9.9
2018-Sep-13 16:03N 43°44' E 007°26'0 5.2
2018-Sep-13 16:00N 43°44' E 007°26'0 0.3
2018-Sep-13 15:28N 43°44' E 007°26'0 0.0
2018-Sep-13 15:01N 43°44' E 007°26'0 0.1
2018-Sep-13 14:58N 43°44' E 007°26'0 0.0
2018-Sep-13 14:28N 43°44' E 007°26'0 0.0
2018-Sep-13 13:58N 43°44' E 007°26'0 0.0
2018-Sep-13 13:28N 43°44' E 007°26'0 0.0
2018-Sep-13 13:01N 43°44' E 007°26'0 0.0
2018-Sep-13 12:58N 43°44' E 007°26'0 0.0
2018-Sep-13 12:28N 43°44' E 007°26'0 0.0
2018-Sep-13 12:01N 43°44' E 007°26'0 0.1
2018-Sep-13 11:58N 43°44' E 007°26'0 0.0
2018-Sep-13 11:28N 43°44' E 007°26'0 0.0
2018-Sep-13 11:01N 43°44' E 007°26'0 0.1
2018-Sep-13 10:58N 43°44' E 007°26'0 0.0
2018-Sep-13 10:28N 43°44' E 007°26'0 0.0
2018-Sep-13 10:01N 43°44' E 007°26'0 0.1
2018-Sep-13 09:58N 43°44' E 007°26'0 0.0
2018-Sep-13 09:28N 43°44' E 007°26'0 0.0
2018-Sep-13 08:58N 43°44' E 007°26'0 0.0
2018-Sep-13 08:28N 43°44' E 007°26'0 0.0
2018-Sep-13 07:58N 43°44' E 007°26'0 0.0
2018-Sep-13 07:28N 43°44' E 007°26'0 0.0
2018-Sep-13 07:01N 43°44' E 007°26'0 0.2
2018-Sep-13 06:58N 43°44' E 007°26'0 0.0
2018-Sep-13 06:28N 43°44' E 007°26'0 0.0
2018-Sep-13 06:01N 43°44' E 007°26'0 0.0
2018-Sep-13 05:58N 43°44' E 007°26'0 0.0
2018-Sep-13 05:28N 43°44' E 007°26'0 0.0
2018-Sep-13 05:01N 43°44' E 007°26'0 0.1
2018-Sep-13 04:58N 43°44' E 007°26'0 0.3
2018-Sep-13 04:30N 43°44' E 007°26'2 3.8
2018-Sep-13 04:03N 43°42' E 007°26'0 6.9
2018-Sep-13 04:00N 43°42' E 007°25'3 5.4
2018-Sep-13 03:30N 43°40' E 007°23'2 5.1
2018-Sep-13 03:03N 43°39' E 007°20'0 3.8
2018-Sep-13 03:00N 43°39' E 007°20'2 3.6
2018-Sep-13 02:30N 43°37' E 007°18'2 3.4
2018-Sep-13 02:03N 43°36' E 007°17'0 3.4
2018-Sep-13 02:00N 43°36' E 007°17'2 3.4
2018-Sep-13 01:30N 43°35' E 007°16'2 3.4
2018-Sep-13 01:03N 43°33' E 007°14'0 3.6
2018-Sep-13 01:00N 43°33' E 007°14'2 3.7
2018-Sep-13 00:30N 43°32' E 007°12'2 3.7
2018-Sep-13 00:03N 43°31' E 007°11'0 3.7
2018-Sep-13 00:00N 43°30' E 007°11'2 3.7
2018-Sep-12 23:30N 43°29' E 007°09'2 3.5
2018-Sep-12 23:03N 43°28' E 007°08'0 3.3
2018-Sep-12 23:00N 43°27' E 007°08'1 3.0
2018-Sep-12 22:30N 43°26' E 007°07'1 2.7
2018-Sep-12 22:03N 43°25' E 007°07'0 2.8
2018-Sep-12 22:00N 43°25' E 007°07'1 3.0
2018-Sep-12 21:30N 43°23' E 007°07'1 3.0
2018-Sep-12 21:03N 43°22' E 007°07'0 2.9
2018-Sep-12 21:00N 43°22' E 007°07'1 2.8
2018-Sep-12 20:30N 43°21' E 007°08'1 2.9
2018-Sep-12 20:03N 43°19' E 007°08'0 3.1
2018-Sep-12 20:00N 43°19' E 007°08'1 2.7
2018-Sep-12 19:30N 43°18' E 007°08'1 1.3
2018-Sep-12 19:03N 43°18' E 007°07'0 1.5
2018-Sep-12 19:00N 43°18' E 007°07'1 1.9
2018-Sep-12 18:30N 43°17' E 007°06'1 1.9
2018-Sep-12 18:03N 43°16' E 007°05'0 1.9
2018-Sep-12 18:00N 43°16' E 007°05'1 2.1
2018-Sep-12 17:30N 43°15' E 007°04'1 2.0
2018-Sep-12 17:03N 43°14' E 007°04'0 2.1
2018-Sep-12 17:00N 43°14' E 007°04'1 2.1
2018-Sep-12 16:30N 43°13' E 007°03'1 2.6
2018-Sep-12 16:03N 43°14' E 007°02'0 2.1
2018-Sep-12 16:00N 43°15' E 007°02'2 3.5
2018-Sep-12 15:30N 43°15' E 007°00'2 4.9
2018-Sep-12 15:03N 43°16' E 006°57'0 5.7
2018-Sep-12 15:00N 43°16' E 006°57'5 5.7
2018-Sep-12 14:03N 43°17' E 006°50'0 5.3
2018-Sep-12 14:00N 43°17' E 006°49'2 4.6
2018-Sep-12 13:30N 43°17' E 006°46'2 4.6
2018-Sep-12 13:00N 43°17' E 006°43'4 2.9
2018-Sep-12 11:37N 43°17' E 006°38'0 0.0
2018-Sep-12 10:19N 43°17' E 006°38'0 0.0
2018-Sep-12 09:52N 43°17' E 006°38'  

Dump ship's entire track history